Time;durP1;ratioP1;P1;durP2;ratioP2;P2;SDS_P1;SDS_P2;PMS_P1;PMS_P2;Temp;Humidity;BMP_temperature;BMP_pressure;BME280_temperature;BME280_humidity;BME280_pressure;Samples;Min_cycle;Max_cycle;Signal;HPM_P1;HPM_P2
2021/09/13 00:01:41;;;;;;;;;;;18.40;68.70;;;;;;490278;242;1354;-44
2021/09/13 00:03:42;;;;;;;;;;;18.40;68.70;;;;;;490635;242;1061;-44
2021/09/13 00:05:44;;;;;;;;;;;18.40;68.60;;;;;;490402;242;1060;-43
2021/09/13 00:07:45;;;;;;;;;;;18.40;68.60;;;;;;490089;242;2189;-43
2021/09/13 00:09:46;;;;;;;;;;;18.40;68.60;;;;;;490500;242;1167;-44
2021/09/13 00:11:47;;;;;;;;;;;18.40;68.60;;;;;;490570;242;1207;-43
2021/09/13 00:13:49;;;;;;;;;;;18.40;68.60;;;;;;490474;242;1083;-44
2021/09/13 00:15:50;;;;;;;;;;;18.40;68.60;;;;;;490516;242;1201;-43
2021/09/13 00:17:51;;;;;;;;;;;18.40;68.60;;;;;;490475;242;1210;-44
2021/09/13 00:19:53;;;;;;;;;;;18.40;68.60;;;;;;490442;242;1128;-44
2021/09/13 00:21:54;;;;;;;;;;;18.30;68.70;;;;;;489995;242;1158;-44
2021/09/13 00:23:55;;;;;;;;;;;18.30;68.80;;;;;;490124;242;1057;-44
2021/09/13 00:25:57;;;;;;;;;;;18.30;68.80;;;;;;490487;242;1371;-43
2021/09/13 00:27:58;;;;;;;;;;;18.40;68.70;;;;;;490530;242;2133;-43
2021/09/13 00:29:59;;;;;;;;;;;18.40;68.60;;;;;;490151;242;1188;-43
2021/09/13 00:32:01;;;;;;;;;;;18.40;68.60;;;;;;490113;242;1241;-43
2021/09/13 00:34:02;;;;;;;;;;;18.40;68.60;;;;;;490549;242;975;-43
2021/09/13 00:36:03;;;;;;;;;;;18.40;68.60;;;;;;490562;242;1119;-43
2021/09/13 00:38:05;;;;;;;;;;;18.40;68.60;;;;;;490605;242;1176;-43
2021/09/13 00:40:06;;;;;;;;;;;18.40;68.80;;;;;;490597;242;1141;-43
2021/09/13 00:42:07;;;;;;;;;;;18.40;68.70;;;;;;490084;242;1209;-43
2021/09/13 00:44:08;;;;;;;;;;;18.40;68.70;;;;;;490239;242;1172;-44
2021/09/13 00:46:10;;;;;;;;;;;18.40;68.80;;;;;;490094;242;1297;-44
2021/09/13 00:48:11;;;;;;;;;;;18.40;68.70;;;;;;490119;242;2193;-43
2021/09/13 00:50:12;;;;;;;;;;;18.40;68.80;;;;;;490152;242;1055;-44
2021/09/13 00:52:14;;;;;;;;;;;18.40;68.70;;;;;;490162;242;1196;-43
2021/09/13 00:54:15;;;;;;;;;;;18.40;68.60;;;;;;490617;242;1065;-44
2021/09/13 00:56:16;;;;;;;;;;;18.40;68.70;;;;;;490054;242;1269;-43
2021/09/13 00:58:18;;;;;;;;;;;18.40;68.70;;;;;;490610;242;1058;-42
2021/09/13 01:00:19;;;;;;;;;;;18.30;68.80;;;;;;490580;242;1063;-43
2021/09/13 01:02:20;;;;;;;;;;;18.30;68.90;;;;;;490050;242;1366;-43
2021/09/13 01:04:22;;;;;;;;;;;18.30;68.70;;;;;;490537;242;1156;-43
2021/09/13 01:06:23;;;;;;;;;;;18.40;68.70;;;;;;490282;242;1292;-44
2021/09/13 01:08:24;;;;;;;;;;;18.30;68.70;;;;;;490477;242;2122;-43
2021/09/13 01:10:27;;;;;;;;;;;18.40;68.60;;;;;;490134;242;1190;-43
2021/09/13 01:12:27;;;;;;;;;;;18.30;68.70;;;;;;490012;242;2166;-43
2021/09/13 01:14:29;;;;;;;;;;;18.40;68.60;;;;;;490638;242;1038;-44
2021/09/13 01:16:30;;;;;;;;;;;18.40;68.60;;;;;;490490;242;1335;-43
2021/09/13 01:18:31;;;;;;;;;;;18.30;68.70;;;;;;490359;242;1249;-43
2021/09/13 01:20:33;;;;;;;;;;;18.40;68.80;;;;;;490233;242;1086;-43
2021/09/13 01:22:34;;;;;;;;;;;18.40;68.70;;;;;;490334;242;1114;-44
2021/09/13 01:24:35;;;;;;;;;;;18.40;68.60;;;;;;490618;242;1040;-44
2021/09/13 01:26:37;;;;;;;;;;;18.40;68.60;;;;;;490545;242;1063;-44
2021/09/13 01:28:38;;;;;;;;;;;18.40;68.70;;;;;;490272;242;2126;-44
2021/09/13 01:30:39;;;;;;;;;;;18.40;68.60;;;;;;490393;242;1067;-44
2021/09/13 01:32:41;;;;;;;;;;;18.40;68.70;;;;;;490153;242;1344;-43
2021/09/13 01:34:42;;;;;;;;;;;18.40;68.60;;;;;;490140;242;1044;-43
2021/09/13 01:36:43;;;;;;;;;;;18.40;68.50;;;;;;490506;242;1196;-44
2021/09/13 01:38:45;;;;;;;;;;;18.40;68.40;;;;;;490414;242;1194;-43
2021/09/13 01:40:46;;;;;;;;;;;18.40;68.60;;;;;;490618;242;1039;-43
2021/09/13 01:42:47;;;;;;;;;;;18.40;68.70;;;;;;490564;242;1363;-44
2021/09/13 01:44:49;;;;;;;;;;;18.30;68.70;;;;;;490126;242;1082;-43
2021/09/13 01:46:50;;;;;;;;;;;18.30;68.70;;;;;;490070;242;1522;-43
2021/09/13 01:48:51;;;;;;;;;;;18.30;68.70;;;;;;490122;242;2197;-44
2021/09/13 01:50:53;;;;;;;;;;;18.40;68.80;;;;;;490441;242;1210;-43
2021/09/13 01:52:54;;;;;;;;;;;18.40;68.80;;;;;;490136;242;1165;-44
2021/09/13 01:54:55;;;;;;;;;;;18.30;68.70;;;;;;490094;242;1168;-44
2021/09/13 01:56:57;;;;;;;;;;;18.40;68.70;;;;;;490165;242;1204;-43
2021/09/13 01:58:59;;;;;;;;;;;18.40;68.60;;;;;;490125;242;1166;-43
2021/09/13 02:00:59;;;;;;;;;;;18.30;68.70;;;;;;490579;242;1364;-44
2021/09/13 02:03:01;;;;;;;;;;;18.40;68.50;;;;;;490481;242;1159;-44
2021/09/13 02:05:02;;;;;;;;;;;18.40;68.50;;;;;;490476;242;1168;-44
2021/09/13 02:07:04;;;;;;;;;;;18.40;68.50;;;;;;490573;242;1271;-43
2021/09/13 02:09:05;;;;;;;;;;;18.40;68.70;;;;;;490558;242;2120;-43
2021/09/13 02:11:06;;;;;;;;;;;18.40;68.70;;;;;;490150;242;1212;-43
2021/09/13 02:13:07;;;;;;;;;;;18.30;68.70;;;;;;490124;242;1289;-44
2021/09/13 02:15:09;;;;;;;;;;;18.40;68.80;;;;;;490118;242;1121;-43
2021/09/13 02:17:10;;;;;;;;;;;18.40;68.60;;;;;;490435;242;1069;-43
2021/09/13 02:19:11;;;;;;;;;;;18.40;68.60;;;;;;490131;242;1087;-43
2021/09/13 02:21:13;;;;;;;;;;;18.40;68.60;;;;;;490355;242;1142;-43
2021/09/13 02:23:14;;;;;;;;;;;18.40;68.50;;;;;;490588;242;1286;-44
2021/09/13 02:25:15;;;;;;;;;;;18.40;68.50;;;;;;490047;242;1238;-43
2021/09/13 02:27:17;;;;;;;;;;;18.40;68.60;;;;;;490195;242;1211;-44
2021/09/13 02:29:18;;;;;;;;;;;18.40;68.70;;;;;;490277;242;2122;-43
2021/09/13 02:31:19;;;;;;;;;;;18.40;68.60;;;;;;490053;242;1216;-44
2021/09/13 02:33:21;;;;;;;;;;;18.40;68.60;;;;;;490237;242;1242;-43
2021/09/13 02:35:22;;;;;;;;;;;18.40;68.60;;;;;;490575;242;1027;-44
2021/09/13 02:37:23;;;;;;;;;;;18.40;68.60;;;;;;490048;242;1587;-43
2021/09/13 02:39:25;;;;;;;;;;;18.40;68.80;;;;;;490123;242;1061;-43
2021/09/13 02:41:26;;;;;;;;;;;18.40;68.80;;;;;;490322;242;1144;-44
2021/09/13 02:43:27;;;;;;;;;;;18.30;68.70;;;;;;490110;242;1023;-44
2021/09/13 02:45:29;;;;;;;;;;;18.40;68.80;;;;;;490128;242;1056;-44
2021/09/13 02:47:30;;;;;;;;;;;18.40;68.80;;;;;;490453;242;2133;-44
2021/09/13 02:49:31;;;;;;;;;;;18.40;68.70;;;;;;490557;242;995;-44
2021/09/13 02:51:33;;;;;;;;;;;18.40;68.70;;;;;;490224;242;1316;-44
2021/09/13 02:53:35;;;;;;;;;;;18.30;68.70;;;;;;490405;242;1251;-44
2021/09/13 02:55:35;;;;;;;;;;;18.30;68.80;;;;;;490267;242;1508;-43
2021/09/13 02:57:36;;;;;;;;;;;18.30;68.70;;;;;;490248;242;1177;-44
2021/09/13 02:59:38;;;;;;;;;;;18.40;68.80;;;;;;490578;242;1182;-43
2021/09/13 03:01:39;;;;;;;;;;;18.40;68.90;;;;;;490444;242;1344;-44
2021/09/13 03:03:41;;;;;;;;;;;18.30;68.70;;;;;;490182;242;1123;-43
2021/09/13 03:05:42;;;;;;;;;;;18.30;68.70;;;;;;490108;242;1227;-44
2021/09/13 03:07:44;;;;;;;;;;;18.40;68.80;;;;;;490477;242;2118;-43
2021/09/13 03:09:45;;;;;;;;;;;18.40;68.80;;;;;;490595;242;1043;-43
2021/09/13 03:11:46;;;;;;;;;;;18.40;68.70;;;;;;490527;242;1278;-43
2021/09/13 03:13:47;;;;;;;;;;;18.40;68.60;;;;;;490142;242;1127;-43
2021/09/13 03:15:49;;;;;;;;;;;18.40;68.70;;;;;;490104;242;1214;-44
2021/09/13 03:17:50;;;;;;;;;;;18.30;68.80;;;;;;490092;242;1214;-43
2021/09/13 03:19:51;;;;;;;;;;;18.40;68.80;;;;;;490111;242;1067;-43
2021/09/13 03:21:53;;;;;;;;;;;18.40;68.70;;;;;;490101;242;1280;-43
2021/09/13 03:23:54;;;;;;;;;;;18.40;68.60;;;;;;490410;242;1182;-43
2021/09/13 03:25:55;;;;;;;;;;;18.30;68.60;;;;;;490105;242;1339;-43
2021/09/13 03:27:58;;;;;;;;;;;18.40;68.70;;;;;;490109;242;2127;-44
2021/09/13 03:29:58;;;;;;;;;;;18.40;68.70;;;;;;490041;243;1475;-43
2021/09/13 03:32:00;;;;;;;;;;;18.40;68.70;;;;;;490388;242;1196;-44
2021/09/13 03:34:01;;;;;;;;;;;18.40;68.70;;;;;;490086;242;1065;-43
2021/09/13 03:36:02;;;;;;;;;;;18.40;68.70;;;;;;490512;242;1212;-42
2021/09/13 03:38:04;;;;;;;;;;;18.40;68.70;;;;;;490116;242;1020;-44
2021/09/13 03:40:05;;;;;;;;;;;18.40;68.70;;;;;;490108;242;1147;-44
2021/09/13 03:42:06;;;;;;;;;;;18.30;68.70;;;;;;490250;242;1203;-44
2021/09/13 03:44:07;;;;;;;;;;;18.40;68.60;;;;;;490551;242;1150;-43
2021/09/13 03:46:09;;;;;;;;;;;18.40;68.60;;;;;;490014;242;1649;-43
2021/09/13 03:48:10;;;;;;;;;;;18.40;68.70;;;;;;490135;242;2138;-44
2021/09/13 03:50:12;;;;;;;;;;;18.30;68.60;;;;;;490447;242;1299;-44
2021/09/13 03:52:13;;;;;;;;;;;18.30;68.70;;;;;;490092;242;1277;-44
2021/09/13 03:54:14;;;;;;;;;;;18.40;68.70;;;;;;490267;242;1200;-43
2021/09/13 03:56:15;;;;;;;;;;;18.40;68.80;;;;;;490021;242;1504;-43
2021/09/13 03:58:17;;;;;;;;;;;18.40;68.80;;;;;;490327;242;1163;-43
2021/09/13 04:00:18;;;;;;;;;;;18.40;68.80;;;;;;490329;242;1099;-44
2021/09/13 04:02:20;;;;;;;;;;;18.30;68.70;;;;;;490154;242;1223;-44
2021/09/13 04:04:23;;;;;;;;;;;18.40;68.80;;;;;;490580;242;1248;-43
2021/09/13 04:06:25;;;;;;;;;;;18.40;68.60;;;;;;490093;243;2254;-44
2021/09/13 04:08:41;;;;;;;;;;;18.30;68.70;;;;;;490274;243;2189;-43
2021/09/13 04:10:41;;;;;;;;;;;18.30;68.70;;;;;;490226;243;1547;-43
2021/09/13 04:12:38;;;;;;;;;;;18.40;68.70;;;;;;490301;243;1381;-44
2021/09/13 04:14:39;;;;;;;;;;;18.30;68.70;;;;;;490039;242;1285;-43
2021/09/13 04:16:40;;;;;;;;;;;18.30;68.80;;;;;;492675;242;2304;-44
2021/09/13 04:18:42;;;;;;;;;;;18.30;68.80;;;;;;490182;243;1065;-42
2021/09/13 04:20:43;;;;;;;;;;;18.40;68.80;;;;;;490008;242;1075;-44
2021/09/13 04:22:44;;;;;;;;;;;18.40;68.80;;;;;;490448;242;1143;-43
2021/09/13 04:24:46;;;;;;;;;;;18.30;68.70;;;;;;490178;242;1088;-44
2021/09/13 04:26:47;;;;;;;;;;;18.30;68.60;;;;;;490210;242;1697;-44
2021/09/13 04:28:48;;;;;;;;;;;18.30;68.70;;;;;;490339;242;2200;-44
2021/09/13 04:30:50;;;;;;;;;;;18.30;68.70;;;;;;490336;242;1319;-43
2021/09/13 04:32:51;;;;;;;;;;;18.40;68.70;;;;;;490261;242;1276;-43
2021/09/13 04:34:52;;;;;;;;;;;18.40;68.70;;;;;;490187;242;1073;-43
2021/09/13 04:36:54;;;;;;;;;;;18.40;68.70;;;;;;490152;242;1314;-44
2021/09/13 04:38:55;;;;;;;;;;;18.40;68.70;;;;;;489994;242;1104;-43
2021/09/13 04:40:56;;;;;;;;;;;18.40;68.60;;;;;;490392;242;1208;-44
2021/09/13 04:42:58;;;;;;;;;;;18.30;68.60;;;;;;489914;242;1154;-44
2021/09/13 04:44:59;;;;;;;;;;;18.40;68.70;;;;;;489995;242;1112;-44
2021/09/13 04:47:00;;;;;;;;;;;18.30;68.70;;;;;;489982;242;1460;-43
2021/09/13 04:49:02;;;;;;;;;;;18.30;68.80;;;;;;489911;242;2198;-44
2021/09/13 04:51:03;;;;;;;;;;;18.30;68.70;;;;;;490104;242;1197;-43
2021/09/13 04:53:04;;;;;;;;;;;18.30;68.70;;;;;;490242;242;1055;-44
2021/09/13 04:55:06;;;;;;;;;;;18.30;68.70;;;;;;489921;242;1257;-44
2021/09/13 04:57:07;;;;;;;;;;;18.30;68.70;;;;;;490071;242;1233;-43
2021/09/13 04:59:08;;;;;;;;;;;18.30;68.80;;;;;;490027;242;1178;-43
2021/09/13 05:01:10;;;;;;;;;;;18.30;68.70;;;;;;489874;242;1109;-43
2021/09/13 05:03:11;;;;;;;;;;;18.30;68.70;;;;;;489868;242;1151;-44
2021/09/13 05:05:12;;;;;;;;;;;18.30;68.70;;;;;;489871;242;1096;-43
2021/09/13 05:07:13;;;;;;;;;;;18.30;68.80;;;;;;489824;242;1272;-43
2021/09/13 05:09:15;;;;;;;;;;;18.30;68.70;;;;;;489803;242;2212;-43
2021/09/13 05:11:16;;;;;;;;;;;18.30;68.60;;;;;;489730;242;1324;-44
2021/09/13 05:13:17;;;;;;;;;;;18.30;68.70;;;;;;489738;242;1181;-43
2021/09/13 05:15:19;;;;;;;;;;;18.30;68.80;;;;;;489849;242;1078;-44
2021/09/13 05:17:20;;;;;;;;;;;18.30;68.80;;;;;;489643;242;1322;-43
2021/09/13 05:19:21;;;;;;;;;;;18.30;68.70;;;;;;490039;242;1127;-44
2021/09/13 05:21:23;;;;;;;;;;;18.30;68.80;;;;;;490101;242;1230;-44
2021/09/13 05:23:24;;;;;;;;;;;18.30;68.70;;;;;;489938;242;1105;-43
2021/09/13 05:25:25;;;;;;;;;;;18.30;68.70;;;;;;490026;242;1166;-44
2021/09/13 05:27:27;;;;;;;;;;;18.30;68.90;;;;;;489801;242;1222;-43
2021/09/13 05:29:28;;;;;;;;;;;18.30;68.90;;;;;;490227;242;2132;-44
2021/09/13 05:31:30;;;;;;;;;;;18.30;68.80;;;;;;489787;242;1345;-43
2021/09/13 05:33:31;;;;;;;;;;;18.30;68.80;;;;;;489886;242;1145;-43
2021/09/13 05:35:33;;;;;;;;;;;18.30;68.80;;;;;;489825;242;1192;-44
2021/09/13 05:37:34;;;;;;;;;;;18.30;68.80;;;;;;489853;242;1194;-43
2021/09/13 05:39:35;;;;;;;;;;;18.30;68.90;;;;;;489767;242;1198;-43
2021/09/13 05:41:37;;;;;;;;;;;18.30;69.00;;;;;;489755;242;1158;-43
2021/09/13 05:43:38;;;;;;;;;;;18.30;68.80;;;;;;490117;242;1304;-44
2021/09/13 05:45:39;;;;;;;;;;;18.30;68.70;;;;;;489788;242;1083;-44
2021/09/13 05:47:41;;;;;;;;;;;18.40;68.70;;;;;;489925;242;1027;-44
2021/09/13 05:49:42;;;;;;;;;;;18.30;68.80;;;;;;489743;242;2185;-43
2021/09/13 05:51:45;;;;;;;;;;;18.30;68.90;;;;;;489931;242;1278;-44
2021/09/13 05:53:45;;;;;;;;;;;18.30;68.90;;;;;;489832;242;1954;-43
2021/09/13 05:55:46;;;;;;;;;;;18.30;68.90;;;;;;489667;242;1317;-43
2021/09/13 05:57:47;;;;;;;;;;;18.30;68.90;;;;;;489781;242;1113;-44
2021/09/13 05:59:49;;;;;;;;;;;18.30;68.90;;;;;;489767;242;1148;-44
2021/09/13 06:01:50;;;;;;;;;;;18.30;68.90;;;;;;489792;242;1305;-43
2021/09/13 06:03:51;;;;;;;;;;;18.30;68.80;;;;;;489900;242;1084;-43
2021/09/13 06:05:53;;;;;;;;;;;18.30;68.90;;;;;;489739;242;1164;-43
2021/09/13 06:07:54;;;;;;;;;;;18.50;68.40;;;;;;489868;242;1203;-44
2021/09/13 06:09:55;;;;;;;;;;;18.70;67.50;;;;;;489777;242;2187;-44
2021/09/13 06:11:57;;;;;;;;;;;18.90;66.60;;;;;;489659;242;1234;-43
2021/09/13 06:13:58;;;;;;;;;;;19.10;66.00;;;;;;489636;242;1191;-43
2021/09/13 06:15:59;;;;;;;;;;;19.30;65.40;;;;;;489684;242;1187;-44
2021/09/13 06:18:00;;;;;;;;;;;19.40;64.90;;;;;;489788;242;1172;-44
2021/09/13 06:20:02;;;;;;;;;;;19.50;64.50;;;;;;489696;242;1095;-44
2021/09/13 06:22:04;;;;;;;;;;;19.60;64.30;;;;;;489912;242;1347;-44
2021/09/13 06:24:05;;;;;;;;;;;19.70;64.00;;;;;;489672;242;1071;-43
2021/09/13 06:26:06;;;;;;;;;;;19.80;63.80;;;;;;489615;242;1281;-44
2021/09/13 06:28:08;;;;;;;;;;;19.80;63.50;;;;;;489751;242;1209;-44
2021/09/13 06:30:09;;;;;;;;;;;19.90;63.30;;;;;;489560;242;2132;-43
2021/09/13 06:32:10;;;;;;;;;;;19.90;63.30;;;;;;489569;242;1256;-43
2021/09/13 06:34:15;;;;;;;;;;;19.90;63.40;;;;;;489473;242;1212;-43
2021/09/13 06:36:13;;;;;;;;;;;19.80;63.70;;;;;;489466;243;1405;-44
2021/09/13 06:38:15;;;;;;;;;;;19.60;64.30;;;;;;489417;242;1270;-43
2021/09/13 06:40:16;;;;;;;;;;;19.40;65.10;;;;;;489672;242;1266;-44
2021/09/13 06:42:17;;;;;;;;;;;19.20;65.70;;;;;;489510;242;1245;-43
2021/09/13 06:44:22;;;;;;;;;;;19.10;66.20;;;;;;489479;242;1197;-43
2021/09/13 06:46:25;;;;;;;;;;;19.00;66.40;;;;;;489539;243;1419;-43
2021/09/13 06:48:24;;;;;;;;;;;19.00;66.70;;;;;;489401;243;2253;-46
2021/09/13 06:50:25;;;;;;;;;;;19.00;66.80;;;;;;489350;242;2185;-46
2021/09/13 06:52:27;;;;;;;;;;;18.90;67.20;;;;;;489329;242;1243;-46
2021/09/13 06:54:28;;;;;;;;;;;18.90;67.20;;;;;;489363;242;1206;-46
2021/09/13 06:56:30;;;;;;;;;;;18.90;67.20;;;;;;489399;242;1248;-45
2021/09/13 06:58:31;;;;;;;;;;;18.80;67.30;;;;;;489411;242;1144;-46
2021/09/13 07:00:33;;;;;;;;;;;18.70;67.50;;;;;;489372;242;1220;-46
2021/09/13 07:02:34;;;;;;;;;;;18.70;67.60;;;;;;489570;242;1305;-46
2021/09/13 07:04:35;;;;;;;;;;;18.70;67.70;;;;;;489414;242;1079;-46
2021/09/13 07:06:36;;;;;;;;;;;18.70;67.80;;;;;;489382;242;1330;-46
2021/09/13 07:08:38;;;;;;;;;;;18.60;67.90;;;;;;489269;242;1071;-45
2021/09/13 07:10:39;;;;;;;;;;;18.70;68.00;;;;;;489335;242;2117;-46
2021/09/13 07:12:40;;;;;;;;;;;18.70;68.10;;;;;;489070;242;1220;-46
2021/09/13 07:14:42;;;;;;;;;;;18.70;68.10;;;;;;489191;242;1186;-46
2021/09/13 07:16:43;;;;;;;;;;;18.60;68.00;;;;;;488909;242;1082;-46
2021/09/13 07:18:44;;;;;;;;;;;18.60;68.20;;;;;;489169;242;1344;-46
2021/09/13 07:20:46;;;;;;;;;;;18.60;68.20;;;;;;489158;242;1398;-46
2021/09/13 07:22:47;;;;;;;;;;;18.50;68.20;;;;;;489196;242;1120;-46
2021/09/13 07:24:48;;;;;;;;;;;18.60;68.30;;;;;;489095;242;1231;-45
2021/09/13 07:26:50;;;;;;;;;;;18.60;68.20;;;;;;488899;242;1165;-46
2021/09/13 07:28:51;;;;;;;;;;;18.60;68.30;;;;;;488927;242;1103;-47
2021/09/13 07:30:53;;;;;;;;;;;18.60;68.30;;;;;;489412;242;2181;-47
2021/09/13 07:32:54;;;;;;;;;;;18.50;68.30;;;;;;489314;242;1140;-46
2021/09/13 07:34:55;;;;;;;;;;;18.50;68.40;;;;;;489221;242;1083;-44
2021/09/13 07:36:57;;;;;;;;;;;18.60;68.40;;;;;;489278;242;1278;-43
2021/09/13 07:38:58;;;;;;;;;;;18.50;68.50;;;;;;489422;242;822;-44
2021/09/13 07:40:59;;;;;;;;;;;18.50;68.50;;;;;;489380;242;1205;-44
2021/09/13 07:43:00;;;;;;;;;;;18.50;68.40;;;;;;489870;242;1089;-44
2021/09/13 07:45:02;;;;;;;;;;;18.50;68.40;;;;;;489606;242;1232;-43
2021/09/13 07:47:04;;;;;;;;;;;18.50;68.40;;;;;;489820;242;1202;-43
2021/09/13 07:49:04;;;;;;;;;;;18.50;68.60;;;;;;489554;242;1268;-43
2021/09/13 07:51:06;;;;;;;;;;;18.50;68.60;;;;;;489248;242;2201;-46
2021/09/13 07:53:07;;;;;;;;;;;18.50;68.60;;;;;;489394;242;1088;-46
2021/09/13 07:55:09;;;;;;;;;;;18.50;68.50;;;;;;489299;242;1102;-46
2021/09/13 07:57:10;;;;;;;;;;;18.50;68.40;;;;;;489031;242;1224;-46
2021/09/13 07:59:11;;;;;;;;;;;18.50;68.50;;;;;;489125;242;1159;-46
2021/09/13 08:01:13;;;;;;;;;;;18.50;68.50;;;;;;488335;242;1224;-46
2021/09/13 08:03:14;;;;;;;;;;;18.50;68.70;;;;;;489030;242;1212;-44
2021/09/13 08:05:15;;;;;;;;;;;18.50;68.60;;;;;;489144;242;1086;-44
2021/09/13 08:07:17;;;;;;;;;;;18.50;68.50;;;;;;489598;242;1660;-44
2021/09/13 08:09:18;;;;;;;;;;;18.50;68.60;;;;;;490064;242;946;-44
2021/09/13 08:11:19;;;;;;;;;;;18.60;68.20;;;;;;489914;242;2189;-44
2021/09/13 08:13:21;;;;;;;;;;;18.80;67.50;;;;;;489329;242;1201;-44
2021/09/13 08:15:24;;;;;;;;;;;19.10;66.70;;;;;;489092;242;1104;-44
2021/09/13 08:17:24;;;;;;;;;;;19.20;65.90;;;;;;489398;243;1394;-44
2021/09/13 08:19:25;;;;;;;;;;;19.40;65.30;;;;;;489509;242;988;-43
2021/09/13 08:21:27;;;;;;;;;;;19.50;64.90;;;;;;489097;242;1326;-44
2021/09/13 08:23:33;;;;;;;;;;;19.60;64.50;;;;;;489343;242;1156;-44
2021/09/13 08:25:30;;;;;;;;;;;19.70;64.20;;;;;;488825;243;2101;-44
2021/09/13 08:27:31;;;;;;;;;;;19.80;64.20;;;;;;489157;242;1136;-44
2021/09/13 08:29:33;;;;;;;;;;;19.60;64.50;;;;;;489048;242;2181;-43
2021/09/13 08:31:34;;;;;;;;;;;19.40;65.10;;;;;;489080;242;1349;-44
2021/09/13 08:33:35;;;;;;;;;;;19.30;65.90;;;;;;489124;242;1159;-43
2021/09/13 08:35:37;;;;;;;;;;;19.10;66.20;;;;;;489125;242;1211;-43
2021/09/13 08:37:38;;;;;;;;;;;19.10;66.50;;;;;;489113;242;1155;-47
2021/09/13 08:39:39;;;;;;;;;;;19.00;66.70;;;;;;489128;242;1430;-43
2021/09/13 08:41:41;;;;;;;;;;;18.90;67.00;;;;;;488598;242;1799;-46
2021/09/13 08:43:42;;;;;;;;;;;18.90;67.20;;;;;;489259;242;1109;-46
2021/09/13 08:45:47;;;;;;;;;;;18.80;67.40;;;;;;489011;242;1092;-46
2021/09/13 08:47:54;;;;;;;;;;;18.80;67.60;;;;;;489220;243;2014;-46
2021/09/13 08:49:55;;;;;;;;;;;18.80;67.60;;;;;;489351;243;2193;-46
2021/09/13 08:51:53;;;;;;;;;;;18.80;67.70;;;;;;488743;243;1256;-45
2021/09/13 08:53:55;;;;;;;;;;;18.80;67.70;;;;;;489010;242;1160;-46
2021/09/13 08:55:55;;;;;;;;;;;18.70;67.80;;;;;;489065;242;2042;-45
2021/09/13 08:57:58;;;;;;;;;;;18.60;67.90;;;;;;489192;242;1124;-45
2021/09/13 08:59:58;;;;;;;;;;;18.70;68.00;;;;;;489433;242;2186;-45
2021/09/13 09:02:00;;;;;;;;;;;18.70;68.10;;;;;;489401;242;1089;-45
2021/09/13 09:04:01;;;;;;;;;;;18.60;68.10;;;;;;489398;242;1199;-46
2021/09/13 09:06:02;;;;;;;;;;;18.60;68.10;;;;;;489034;242;1207;-45
2021/09/13 09:08:04;;;;;;;;;;;18.70;68.20;;;;;;488872;242;1301;-46
2021/09/13 09:10:05;;;;;;;;;;;18.60;68.10;;;;;;488993;242;2114;-45
2021/09/13 09:12:09;;;;;;;;;;;18.60;68.20;;;;;;489007;242;1191;-46
2021/09/13 09:14:09;;;;;;;;;;;18.60;68.20;;;;;;489090;243;2171;-46
2021/09/13 09:16:09;;;;;;;;;;;18.60;68.30;;;;;;489066;243;1973;-46
2021/09/13 09:18:10;;;;;;;;;;;18.60;68.40;;;;;;489133;242;1255;-46
2021/09/13 09:20:12;;;;;;;;;;;18.60;68.40;;;;;;489129;242;1092;-46
2021/09/13 09:22:13;;;;;;;;;;;18.60;68.30;;;;;;489525;242;1532;-45
2021/09/13 09:24:14;;;;;;;;;;;18.60;68.30;;;;;;489563;242;1409;-46
2021/09/13 09:26:16;;;;;;;;;;;18.60;68.30;;;;;;489483;242;1351;-47
2021/09/13 09:28:18;;;;;;;;;;;18.60;68.50;;;;;;490013;242;1050;-45
2021/09/13 09:30:18;;;;;;;;;;;18.60;68.40;;;;;;489451;242;2185;-46
2021/09/13 09:32:20;;;;;;;;;;;18.60;68.40;;;;;;489492;242;1083;-46
2021/09/13 09:34:21;;;;;;;;;;;18.50;68.50;;;;;;489206;242;1136;-45
2021/09/13 09:36:22;;;;;;;;;;;18.50;68.50;;;;;;489268;242;1182;-45
2021/09/13 09:38:24;;;;;;;;;;;18.50;68.50;;;;;;489426;242;1128;-46
2021/09/13 09:40:25;;;;;;;;;;;18.50;68.60;;;;;;489131;242;1082;-46
2021/09/13 09:42:26;;;;;;;;;;;18.50;68.60;;;;;;489196;242;1196;-46
2021/09/13 09:44:28;;;;;;;;;;;18.50;68.50;;;;;;489207;242;1226;-45
2021/09/13 09:46:29;;;;;;;;;;;18.50;68.60;;;;;;488884;242;1250;-46
2021/09/13 09:48:32;;;;;;;;;;;18.50;68.60;;;;;;488910;242;1383;-46
2021/09/13 09:50:33;;;;;;;;;;;18.50;68.50;;;;;;489843;242;2191;-46
2021/09/13 09:52:33;;;;;;;;;;;18.50;68.60;;;;;;489944;243;2137;-46
2021/09/13 09:54:35;;;;;;;;;;;18.50;68.60;;;;;;489554;242;839;-45
2021/09/13 09:56:36;;;;;;;;;;;18.50;68.70;;;;;;489458;242;1187;-46
2021/09/13 09:58:37;;;;;;;;;;;18.50;68.40;;;;;;489528;242;1829;-46
2021/09/13 10:00:39;;;;;;;;;;;18.50;68.60;;;;;;489317;242;1371;-46
2021/09/13 10:02:40;;;;;;;;;;;18.50;68.50;;;;;;488999;242;1318;-46
2021/09/13 10:04:42;;;;;;;;;;;18.50;68.50;;;;;;489857;242;1442;-46
2021/09/13 10:06:42;;;;;;;;;;;18.50;68.60;;;;;;489889;242;1216;-46
2021/09/13 10:08:44;;;;;;;;;;;18.50;68.50;;;;;;489887;242;1045;-45
2021/09/13 10:10:45;;;;;;;;;;;18.50;68.70;;;;;;489357;242;2165;-46
2021/09/13 10:12:46;;;;;;;;;;;18.50;68.70;;;;;;489134;242;1475;-45
2021/09/13 10:14:48;;;;;;;;;;;18.50;68.70;;;;;;489056;242;1104;-45
2021/09/13 10:16:49;;;;;;;;;;;18.50;68.70;;;;;;489121;242;1271;-46
2021/09/13 10:18:50;;;;;;;;;;;18.40;68.80;;;;;;489193;242;1176;-46
2021/09/13 10:20:52;;;;;;;;;;;18.50;68.70;;;;;;489031;242;1172;-45
2021/09/13 10:22:53;;;;;;;;;;;18.40;68.70;;;;;;488900;242;1149;-45
2021/09/13 10:24:54;;;;;;;;;;;18.40;68.70;;;;;;489042;242;1164;-46
2021/09/13 10:26:56;;;;;;;;;;;18.50;68.70;;;;;;488904;242;1230;-45
2021/09/13 10:28:57;;;;;;;;;;;18.40;68.80;;;;;;489305;242;1017;-46
2021/09/13 10:30:58;;;;;;;;;;;18.50;68.80;;;;;;489346;242;2170;-46
2021/09/13 10:33:00;;;;;;;;;;;18.50;68.70;;;;;;489552;242;1065;-45
2021/09/13 10:35:01;;;;;;;;;;;18.50;68.50;;;;;;489494;242;1067;-45
2021/09/13 10:37:02;;;;;;;;;;;18.50;68.50;;;;;;489291;242;1338;-45
2021/09/13 10:39:04;;;;;;;;;;;18.50;68.60;;;;;;489996;242;1352;-45
2021/09/13 10:41:05;;;;;;;;;;;18.40;68.70;;;;;;489843;242;1178;-43
2021/09/13 10:43:06;;;;;;;;;;;18.40;68.80;;;;;;489369;242;1093;-44
2021/09/13 10:45:07;;;;;;;;;;;18.40;68.60;;;;;;489814;242;882;-43
2021/09/13 10:47:09;;;;;;;;;;;18.50;68.50;;;;;;489321;242;1157;-44
2021/09/13 10:49:10;;;;;;;;;;;18.40;68.50;;;;;;489832;242;1067;-43
2021/09/13 10:51:12;;;;;;;;;;;18.40;68.50;;;;;;489098;242;2185;-44
2021/09/13 10:53:13;;;;;;;;;;;18.50;68.60;;;;;;489170;242;1415;-43
2021/09/13 10:55:16;;;;;;;;;;;18.40;68.70;;;;;;489155;242;1351;-44
2021/09/13 10:57:15;;;;;;;;;;;18.50;68.60;;;;;;488994;243;1547;-46
2021/09/13 10:59:17;;;;;;;;;;;18.40;68.50;;;;;;489141;242;1149;-46
2021/09/13 11:01:18;;;;;;;;;;;18.50;68.60;;;;;;489053;242;1427;-46
2021/09/13 11:03:19;;;;;;;;;;;18.50;68.50;;;;;;489808;242;1048;-45
2021/09/13 11:05:21;;;;;;;;;;;18.50;68.50;;;;;;489673;242;1051;-45
2021/09/13 11:07:22;;;;;;;;;;;18.40;68.60;;;;;;489160;242;1181;-46
2021/09/13 11:09:24;;;;;;;;;;;18.50;68.40;;;;;;489187;242;1107;-46
2021/09/13 11:11:25;;;;;;;;;;;18.70;67.80;;;;;;489110;242;2185;-46
2021/09/13 11:13:26;;;;;;;;;;;19.00;66.90;;;;;;489041;242;1221;-46
2021/09/13 11:15:28;;;;;;;;;;;19.20;66.10;;;;;;488800;242;1202;-46
2021/09/13 11:17:29;;;;;;;;;;;19.40;65.40;;;;;;488900;242;1209;-46
2021/09/13 11:19:31;;;;;;;;;;;19.50;64.90;;;;;;489012;242;1177;-46
2021/09/13 11:21:32;;;;;;;;;;;19.60;64.50;;;;;;488862;242;1358;-46
2021/09/13 11:23:33;;;;;;;;;;;19.70;64.10;;;;;;488998;242;1122;-46
2021/09/13 11:25:35;;;;;;;;;;;19.80;63.70;;;;;;488999;242;1147;-44
2021/09/13 11:27:36;;;;;;;;;;;19.90;63.50;;;;;;489019;242;1336;-44
2021/09/13 11:29:37;;;;;;;;;;;20.00;63.30;;;;;;488957;242;1089;-44
2021/09/13 11:31:39;;;;;;;;;;;20.10;63.10;;;;;;488900;242;2185;-44
2021/09/13 11:33:40;;;;;;;;;;;20.10;62.90;;;;;;489028;242;1119;-44
2021/09/13 11:35:41;;;;;;;;;;;20.20;62.70;;;;;;488843;242;1230;-44
2021/09/13 11:37:43;;;;;;;;;;;20.20;62.60;;;;;;488938;242;1259;-44
2021/09/13 11:39:45;;;;;;;;;;;20.30;62.40;;;;;;488961;242;1235;-44
2021/09/13 11:41:45;;;;;;;;;;;20.30;62.20;;;;;;488702;243;2307;-44
2021/09/13 11:43:46;;;;;;;;;;;20.30;62.10;;;;;;488865;242;1233;-44
2021/09/13 11:45:48;;;;;;;;;;;20.40;62.00;;;;;;488774;242;1170;-43
2021/09/13 11:47:49;;;;;;;;;;;20.50;61.90;;;;;;489557;242;1149;-43
2021/09/13 11:49:51;;;;;;;;;;;20.50;61.80;;;;;;489222;242;883;-44
2021/09/13 11:51:52;;;;;;;;;;;20.50;61.70;;;;;;489321;242;2189;-44
2021/09/13 11:53:53;;;;;;;;;;;20.60;61.60;;;;;;489893;242;895;-44
2021/09/13 11:55:54;;;;;;;;;;;20.60;61.50;;;;;;489941;242;1198;-43
2021/09/13 11:57:58;;;;;;;;;;;20.70;61.40;;;;;;489885;242;1090;-44